createdAt,value
2023-01-20T00:01:48.956Z,13.30
2023-01-20T00:04:21.192Z,14.13
2023-01-20T00:06:50.392Z,11.73
2023-01-20T00:09:20.169Z,9.48
2023-01-20T00:11:49.182Z,10.77
2023-01-20T00:14:18.378Z,9.75
2023-01-20T00:16:47.345Z,9.80
2023-01-20T00:19:16.689Z,10.10
2023-01-20T00:21:45.891Z,10.48
2023-01-20T00:24:14.837Z,9.80
2023-01-20T00:26:43.864Z,11.20
2023-01-20T00:29:13.080Z,10.32
2023-01-20T00:31:42.217Z,9.77
2023-01-20T00:34:12.708Z,9.73
2023-01-20T00:36:41.641Z,9.15
2023-01-20T00:39:10.577Z,12.15
2023-01-20T00:41:39.526Z,9.15
2023-01-20T00:44:08.641Z,8.10
2023-01-20T00:46:37.583Z,7.75
2023-01-20T00:49:06.535Z,7.55
2023-01-20T00:51:35.437Z,7.63
2023-01-20T00:54:04.383Z,7.40
2023-01-20T00:56:33.275Z,8.55
2023-01-20T00:59:02.161Z,7.88
2023-01-20T01:01:31.128Z,8.50
2023-01-20T01:04:00.047Z,8.40
2023-01-20T01:06:29.010Z,8.50
2023-01-20T01:08:58.281Z,7.72
2023-01-20T01:11:27.263Z,8.00
2023-01-20T01:13:58.060Z,8.20
2023-01-20T01:16:27.059Z,7.18
2023-01-20T01:18:57.015Z,7.90
2023-01-20T01:21:25.969Z,9.55
2023-01-20T01:23:55.802Z,8.13
2023-01-20T01:26:24.791Z,8.00
2023-01-20T01:28:54.533Z,9.13
2023-01-20T01:31:23.507Z,8.88
2023-01-20T01:33:52.455Z,8.20
2023-01-20T01:36:21.467Z,8.25
2023-01-20T01:38:57.681Z,11.65
2023-01-20T01:41:28.477Z,17.98
2023-01-20T01:44:11.084Z,9.55
2023-01-20T01:46:41.499Z,7.45
2023-01-20T01:49:20.755Z,7.05
2023-01-20T01:52:02.976Z,7.75
2023-01-20T01:54:46.695Z,11.77
2023-01-20T01:57:15.757Z,7.13
2023-01-20T01:59:46.273Z,5.60
2023-01-20T02:02:15.348Z,6.32
2023-01-20T02:04:46.063Z,6.00
2023-01-20T02:07:18.855Z,5.78
2023-01-20T02:09:47.839Z,7.80
2023-01-20T02:12:20.358Z,8.07
2023-01-20T02:14:56.365Z,6.28
2023-01-20T02:17:31.036Z,6.30
2023-01-20T02:20:21.568Z,7.30
2023-01-20T02:23:09.228Z,5.65
2023-01-20T02:26:17.863Z,6.25
2023-01-20T02:29:20.119Z,6.35
2023-01-20T02:32:12.762Z,7.70
2023-01-20T02:35:20.465Z,15.98
2023-01-20T02:38:03.024Z,19.38
2023-01-20T02:41:22.454Z,7.05
2023-01-20T02:44:19.688Z,6.63
2023-01-20T02:47:05.448Z,6.43
2023-01-20T02:49:48.174Z,6.30
2023-01-20T02:52:22.662Z,6.03
2023-01-20T02:54:57.142Z,12.20
2023-01-20T02:57:55.111Z,10.75
2023-01-20T03:00:34.261Z,9.00
2023-01-20T03:03:07.791Z,20.08
2023-01-20T03:05:41.601Z,6.65
2023-01-20T03:08:14.832Z,6.90
2023-01-20T03:10:46.801Z,11.37
2023-01-20T03:13:37.704Z,12.07
2023-01-20T03:16:18.517Z,11.95
2023-01-20T03:18:48.064Z,11.95
2023-01-20T03:21:17.094Z,13.60
2023-01-20T03:23:51.139Z,12.32
2023-01-20T03:28:50.714Z,6.90
2023-01-20T03:31:34.370Z,6.00
2023-01-20T03:34:06.801Z,7.25
2023-01-20T03:36:36.408Z,5.25
2023-01-20T03:39:06.700Z,6.10
2023-01-20T03:41:43.581Z,6.03
2023-01-20T03:44:33.502Z,6.13
2023-01-20T03:47:40.922Z,7.72
2023-01-20T03:50:18.278Z,6.53
2023-01-20T03:52:53.008Z,6.03
2023-01-20T03:55:43.705Z,5.65
2023-01-20T03:58:19.370Z,5.85
2023-01-20T04:00:51.428Z,6.72
2023-01-20T04:03:32.541Z,6.32
2023-01-20T04:06:05.387Z,6.45
2023-01-20T04:08:38.987Z,8.35
2023-01-20T04:11:09.663Z,6.75
2023-01-20T04:13:38.939Z,6.88
2023-01-20T04:16:14.926Z,5.93
2023-01-20T04:18:46.908Z,7.97
2023-01-20T04:21:21.985Z,6.30
2023-01-20T04:24:06.344Z,6.40
2023-01-20T04:26:35.337Z,5.95
2023-01-20T04:29:12.656Z,5.93
2023-01-20T04:31:42.129Z,5.60
2023-01-20T04:34:26.406Z,5.97
2023-01-20T04:36:55.445Z,5.75
2023-01-20T04:39:24.394Z,5.90
2023-01-20T04:41:56.154Z,5.32
2023-01-20T04:44:25.040Z,8.38
2023-01-20T04:47:00.860Z,5.97
2023-01-20T04:49:29.930Z,6.30
2023-01-20T04:51:58.808Z,5.32
2023-01-20T04:54:27.724Z,4.75
2023-01-20T04:56:56.661Z,4.45
2023-01-20T04:59:25.693Z,4.70
2023-01-20T05:01:54.791Z,5.00
2023-01-20T05:04:24.043Z,4.07
2023-01-20T05:06:52.931Z,4.68
2023-01-20T05:09:21.941Z,4.72
2023-01-20T05:11:51.207Z,4.55
2023-01-20T05:14:20.114Z,4.15
2023-01-20T05:16:49.045Z,4.35
2023-01-20T05:19:17.925Z,5.13
2023-01-20T05:21:46.927Z,4.95
2023-01-20T05:24:15.848Z,5.60
2023-01-20T05:26:44.754Z,4.70
2023-01-20T05:29:13.675Z,7.93
2023-01-20T05:31:44.346Z,7.40
2023-01-20T05:34:13.458Z,7.15
2023-01-20T05:36:42.355Z,5.47
2023-01-20T05:39:11.281Z,6.40
2023-01-20T05:41:40.164Z,5.18
2023-01-20T05:44:10.126Z,4.85
2023-01-20T05:46:39.066Z,5.68
2023-01-20T05:49:08.185Z,5.15
2023-01-20T05:51:37.037Z,4.70
2023-01-20T05:54:06.106Z,5.32
2023-01-20T05:56:35.234Z,5.00
2023-01-20T05:59:04.088Z,5.00
2023-01-20T06:01:33.083Z,5.72
2023-01-20T06:04:02.016Z,4.63
2023-01-20T06:06:30.919Z,5.50
2023-01-20T06:08:59.977Z,4.93
2023-01-20T06:11:28.934Z,4.68
2023-01-20T06:13:57.796Z,5.30
2023-01-20T06:16:26.743Z,5.38
2023-01-20T06:18:55.867Z,5.97
2023-01-20T06:21:25.962Z,5.15
2023-01-20T06:23:55.589Z,4.80
2023-01-20T06:26:24.545Z,4.68
2023-01-20T06:28:53.424Z,4.93
2023-01-20T06:31:22.518Z,5.72
2023-01-20T06:33:54.244Z,4.43
2023-01-20T06:36:23.360Z,4.78
2023-01-20T06:38:54.039Z,4.85
2023-01-20T06:41:22.941Z,4.82
2023-01-20T06:43:53.228Z,5.07
2023-01-20T06:46:23.473Z,4.63
2023-01-20T06:48:52.919Z,5.47
2023-01-20T06:51:22.543Z,8.02
2023-01-20T06:53:51.459Z,4.95
2023-01-20T06:56:20.411Z,4.80
2023-01-20T06:58:49.623Z,4.82
2023-01-20T07:01:25.640Z,4.75
2023-01-20T07:03:54.804Z,4.65
2023-01-20T07:06:40.548Z,4.50
2023-01-20T07:09:12.527Z,4.85
2023-01-20T07:11:41.854Z,3.90
2023-01-20T07:14:11.364Z,3.78
2023-01-20T07:16:40.476Z,3.75
2023-01-20T07:19:09.493Z,4.28
2023-01-20T07:21:38.522Z,3.75
2023-01-20T07:24:07.931Z,3.78
2023-01-20T07:26:37.504Z,4.13
2023-01-20T07:29:06.472Z,4.40
2023-01-20T07:31:35.480Z,3.80
2023-01-20T07:34:04.570Z,4.05
2023-01-20T07:36:33.553Z,3.08
2023-01-20T07:39:02.437Z,4.70
2023-01-20T07:41:31.430Z,3.92
2023-01-20T07:44:00.333Z,3.70
2023-01-20T07:46:29.265Z,5.15
2023-01-20T07:48:58.542Z,4.10
2023-01-20T07:51:27.462Z,3.92
2023-01-20T07:53:56.373Z,3.70
2023-01-20T07:56:30.726Z,3.80
2023-01-20T07:58:59.846Z,3.97
2023-01-20T08:01:34.053Z,3.42
2023-01-20T08:04:03.194Z,4.10
2023-01-20T08:06:32.616Z,4.05
2023-01-20T08:09:04.990Z,4.38
2023-01-20T08:11:33.948Z,4.28
2023-01-20T08:14:02.979Z,4.28
2023-01-20T08:16:31.929Z,7.93
2023-01-20T08:19:04.105Z,4.38
2023-01-20T08:21:34.019Z,3.60
2023-01-20T08:24:06.660Z,4.25
2023-01-20T08:26:36.119Z,4.60
2023-01-20T08:29:12.793Z,3.55
2023-01-20T08:31:42.449Z,3.67
2023-01-20T08:34:11.735Z,4.07
2023-01-20T08:36:42.805Z,3.53
2023-01-20T08:39:15.409Z,3.75
2023-01-20T08:41:45.521Z,5.13
2023-01-20T08:44:15.220Z,4.22
2023-01-20T08:46:45.530Z,3.28
2023-01-20T08:49:18.055Z,3.33
2023-01-20T08:51:50.497Z,3.38
2023-01-20T08:54:20.411Z,3.83
2023-01-20T08:56:52.317Z,4.25
2023-01-20T08:59:22.267Z,4.07
2023-01-20T09:01:51.190Z,5.40
2023-01-20T09:04:20.166Z,3.90
2023-01-20T09:06:51.412Z,4.35
2023-01-20T09:09:22.874Z,4.40
2023-01-20T09:11:54.752Z,4.53
2023-01-20T09:14:25.487Z,4.43
2023-01-20T09:16:54.843Z,4.57
2023-01-20T09:19:23.839Z,4.75
2023-01-20T09:21:52.727Z,4.60
2023-01-20T09:24:21.841Z,4.07
2023-01-20T09:26:51.854Z,4.30
2023-01-20T09:29:21.985Z,4.05
2023-01-20T09:31:59.328Z,3.72
2023-01-20T09:34:30.446Z,3.85
2023-01-20T09:37:20.065Z,3.63
2023-01-20T09:40:08.136Z,3.97
2023-01-20T09:43:15.314Z,4.78
2023-01-20T09:45:51.904Z,3.95
2023-01-20T09:49:35.612Z,3.72
2023-01-20T09:52:41.300Z,3.83
2023-01-20T09:55:33.048Z,3.83
2023-01-20T09:58:29.821Z,3.60
2023-01-20T10:01:19.160Z,3.42
2023-01-20T10:04:04.849Z,3.42
2023-01-20T10:06:46.025Z,3.55
2023-01-20T10:09:33.824Z,4.10
2023-01-20T10:12:21.189Z,3.72
2023-01-20T10:15:21.930Z,4.00
2023-01-20T10:18:10.354Z,4.07
2023-01-20T10:20:57.723Z,4.25
2023-01-20T10:23:38.953Z,4.90
2023-01-20T10:26:33.585Z,4.28
2023-01-20T10:29:09.295Z,4.60
2023-01-20T10:31:50.054Z,5.20
2023-01-20T10:34:23.678Z,4.78
2023-01-20T10:37:07.472Z,4.82
2023-01-20T10:39:46.093Z,5.18
2023-01-20T10:42:18.186Z,4.75
2023-01-20T10:44:51.328Z,4.72
2023-01-20T10:47:45.123Z,4.72
2023-01-20T10:50:22.203Z,4.60
2023-01-20T10:53:28.024Z,4.40
2023-01-20T10:56:25.382Z,4.95
2023-01-20T10:58:54.410Z,9.18
2023-01-20T11:01:23.517Z,8.50
2023-01-20T11:03:52.654Z,4.75
2023-01-20T11:06:24.495Z,5.18
2023-01-20T11:08:53.802Z,5.25
2023-01-20T11:11:24.858Z,5.82
2023-01-20T11:13:54.992Z,5.10
2023-01-20T11:16:32.468Z,6.40
2023-01-20T11:19:07.317Z,5.40
2023-01-20T11:21:38.168Z,5.88
2023-01-20T11:24:46.496Z,5.68
2023-01-20T11:27:22.395Z,5.90
2023-01-20T11:30:04.381Z,7.05
2023-01-20T11:32:36.534Z,6.97
2023-01-20T11:35:21.076Z,7.40
2023-01-20T11:37:50.097Z,7.03
2023-01-20T11:40:27.954Z,6.72
2023-01-20T11:42:57.279Z,6.35
2023-01-20T11:45:35.682Z,7.10
2023-01-20T11:48:19.169Z,7.15
2023-01-20T11:51:02.331Z,10.67
2023-01-20T11:53:35.387Z,8.15
2023-01-20T11:56:27.427Z,8.07
2023-01-20T11:59:04.842Z,7.93
2023-01-20T12:02:02.636Z,8.18
2023-01-20T12:04:54.061Z,8.23
2023-01-20T12:07:32.397Z,8.15
2023-01-20T12:10:19.194Z,8.05
2023-01-20T12:12:59.105Z,8.20
2023-01-20T12:15:32.862Z,8.27
2023-01-20T12:18:45.399Z,8.43
2023-01-20T12:21:25.620Z,8.82
2023-01-20T12:24:14.286Z,8.75
2023-01-20T12:26:43.243Z,8.48
2023-01-20T12:29:36.723Z,8.60
2023-01-20T12:32:05.911Z,7.45
2023-01-20T12:34:35.890Z,9.82
2023-01-20T12:37:33.646Z,8.77
2023-01-20T12:40:33.969Z,10.43
2023-01-20T12:43:02.899Z,12.00
2023-01-20T12:45:39.879Z,11.13
2023-01-20T12:48:34.131Z,11.02
2023-01-20T12:51:33.686Z,13.15
2023-01-20T12:54:12.357Z,13.88
2023-01-20T12:57:10.159Z,14.45
2023-01-20T12:59:42.186Z,16.50
2023-01-20T13:02:45.118Z,13.32
2023-01-20T13:05:29.068Z,13.10
2023-01-20T13:08:12.838Z,13.50
2023-01-20T13:11:05.260Z,13.18
2023-01-20T13:13:57.532Z,13.80
2023-01-20T13:19:49.099Z,14.30
2023-01-20T13:22:25.580Z,14.85
2023-01-20T13:24:57.062Z,14.30
2023-01-20T13:27:34.700Z,12.48
2023-01-20T13:30:06.197Z,13.77
2023-01-20T13:32:49.940Z,15.35
2023-01-20T13:35:42.916Z,16.98
2023-01-20T13:38:34.206Z,15.48
2023-01-20T13:41:06.778Z,14.18
2023-01-20T13:43:49.227Z,13.95
2023-01-20T13:46:21.232Z,14.43
2023-01-20T13:49:25.572Z,14.40
2023-01-20T13:51:54.526Z,13.87
2023-01-20T13:54:35.288Z,13.18
2023-01-20T13:57:37.133Z,14.10
2023-01-20T14:00:14.221Z,16.45
2023-01-20T14:02:43.311Z,14.73
2023-01-20T14:05:33.207Z,14.15
2023-01-20T14:08:02.283Z,13.98
2023-01-20T14:10:31.464Z,14.95
2023-01-20T14:13:00.384Z,15.45
2023-01-20T14:15:37.126Z,13.02
2023-01-20T14:18:12.967Z,15.38
2023-01-20T14:20:46.493Z,14.95
2023-01-20T14:23:37.087Z,15.20
2023-01-20T14:26:26.459Z,14.02
2023-01-20T14:28:57.936Z,16.00
2023-01-20T14:31:37.579Z,12.95
2023-01-20T14:34:29.753Z,12.50
2023-01-20T14:37:05.025Z,13.32
2023-01-20T14:39:34.449Z,11.90
2023-01-20T14:42:03.711Z,13.48
2023-01-20T14:44:36.700Z,14.93
2023-01-20T14:47:05.898Z,14.63
2023-01-20T14:49:42.978Z,14.13
2023-01-20T14:52:22.844Z,14.80
2023-01-20T14:54:52.028Z,13.98
2023-01-20T14:57:44.507Z,15.80
2023-01-20T15:00:24.283Z,16.42
2023-01-20T15:03:11.513Z,15.30
2023-01-20T15:05:59.427Z,17.00
2023-01-20T15:08:30.089Z,16.83
2023-01-20T15:11:20.171Z,15.77
2023-01-20T15:13:55.083Z,16.77
2023-01-20T15:16:54.696Z,17.02
2023-01-20T15:19:34.331Z,16.20
2023-01-20T15:22:22.218Z,15.77
2023-01-20T15:24:52.257Z,15.13
2023-01-20T15:27:25.679Z,17.05
2023-01-20T15:30:21.371Z,19.98
2023-01-20T15:32:51.170Z,21.60
2023-01-20T15:35:23.912Z,19.33
2023-01-20T15:37:53.951Z,16.85
2023-01-20T15:40:26.273Z,15.57
2023-01-20T15:42:56.015Z,15.65
2023-01-20T15:45:26.611Z,16.50
2023-01-20T15:47:55.718Z,17.20
2023-01-20T15:50:27.744Z,17.92
2023-01-20T15:52:56.778Z,16.75
2023-01-20T15:55:25.917Z,16.88
2023-01-20T15:57:54.987Z,16.55
2023-01-20T16:00:25.551Z,16.92
2023-01-20T16:02:54.647Z,17.45
2023-01-20T16:05:23.845Z,16.77
2023-01-20T16:07:52.833Z,17.92
2023-01-20T16:10:21.991Z,17.80
2023-01-20T16:12:50.952Z,16.92
2023-01-20T16:15:20.269Z,18.35
2023-01-20T16:17:49.281Z,17.73
2023-01-20T16:20:24.108Z,17.95
2023-01-20T16:22:53.251Z,17.77
2023-01-20T16:25:22.958Z,20.17
2023-01-20T16:27:52.119Z,19.17
2023-01-20T16:30:22.850Z,19.30
2023-01-20T16:32:52.287Z,20.00
2023-01-20T16:35:24.637Z,21.88
2023-01-20T16:37:53.980Z,20.58
2023-01-20T16:40:25.923Z,19.90
2023-01-20T16:42:57.105Z,19.48
2023-01-20T16:45:30.743Z,19.52
2023-01-20T16:47:59.765Z,20.58
2023-01-20T16:50:29.428Z,20.75
2023-01-20T16:52:58.637Z,20.25
2023-01-20T16:55:27.723Z,19.83
2023-01-20T16:57:56.766Z,20.10
2023-01-20T17:00:26.164Z,19.17
2023-01-20T17:02:55.630Z,19.15
2023-01-20T17:05:26.538Z,19.38
2023-01-20T17:07:58.425Z,19.95
2023-01-20T17:10:30.732Z,22.52
2023-01-20T17:12:59.846Z,21.02
2023-01-20T17:15:29.392Z,18.98
2023-01-20T17:17:59.447Z,19.02
2023-01-20T17:20:32.040Z,19.73
2023-01-20T17:23:01.080Z,20.27
2023-01-20T17:25:30.053Z,17.95
2023-01-20T17:27:59.041Z,19.23
2023-01-20T17:30:28.107Z,18.40
2023-01-20T17:32:57.255Z,18.65
2023-01-20T17:35:26.139Z,17.95
2023-01-20T17:37:55.070Z,19.08
2023-01-20T17:40:24.096Z,20.15
2023-01-20T17:42:56.304Z,19.17
2023-01-20T17:45:25.349Z,20.23
2023-01-20T17:47:54.263Z,18.65
2023-01-20T17:50:23.307Z,18.58
2023-01-20T17:52:52.867Z,17.92
2023-01-20T17:55:21.819Z,18.35
2023-01-20T17:57:52.823Z,18.65
2023-01-20T18:00:22.069Z,20.98
2023-01-20T18:02:51.626Z,20.17
2023-01-20T18:05:20.519Z,19.42
2023-01-20T18:07:51.431Z,19.83
2023-01-20T18:10:20.456Z,19.88
2023-01-20T18:12:50.519Z,19.95
2023-01-20T18:15:19.487Z,20.48
2023-01-20T18:17:48.482Z,19.15
2023-01-20T18:20:18.929Z,19.35
2023-01-20T18:22:51.732Z,19.95
2023-01-20T18:25:20.663Z,19.85
2023-01-20T18:27:49.617Z,20.10
2023-01-20T18:30:18.885Z,19.13
2023-01-20T18:32:47.888Z,21.45
2023-01-20T18:35:17.011Z,19.50
2023-01-20T18:37:45.951Z,19.85
2023-01-20T18:40:15.167Z,19.70
2023-01-20T18:42:46.056Z,20.42
2023-01-20T18:45:15.021Z,20.35
2023-01-20T18:47:44.027Z,18.35
2023-01-20T18:50:13.312Z,19.05
2023-01-20T18:52:42.269Z,20.15
2023-01-20T18:55:11.576Z,19.30
2023-01-20T18:57:40.549Z,18.40
2023-01-20T19:00:10.181Z,19.80
2023-01-20T19:02:39.156Z,20.05
2023-01-20T19:05:08.607Z,19.95
2023-01-20T19:07:37.567Z,20.85
2023-01-20T19:10:06.842Z,21.38
2023-01-20T19:12:35.788Z,20.83
2023-01-20T19:15:04.958Z,20.63
2023-01-20T19:17:34.138Z,20.35
2023-01-20T19:20:03.168Z,20.95
2023-01-20T19:22:32.143Z,22.30
2023-01-20T19:25:01.340Z,21.35
2023-01-20T19:27:30.261Z,20.83
2023-01-20T19:29:59.523Z,20.13
2023-01-20T19:32:28.785Z,21.45
2023-01-20T19:34:57.790Z,21.08
2023-01-20T19:37:26.952Z,21.92
2023-01-20T19:39:56.722Z,22.35
2023-01-20T19:42:25.928Z,22.67
2023-01-20T19:44:54.982Z,22.13
2023-01-20T19:47:24.081Z,21.38
2023-01-20T19:49:53.373Z,21.13
2023-01-20T19:52:22.279Z,21.42
2023-01-20T19:54:52.042Z,22.38
2023-01-20T19:57:21.132Z,21.48
2023-01-20T19:59:50.462Z,22.90
2023-01-20T20:02:19.478Z,21.55
2023-01-20T20:04:48.503Z,21.13
2023-01-20T20:07:17.400Z,20.75
2023-01-20T20:09:46.373Z,20.73
2023-01-20T20:12:15.354Z,21.35
2023-01-20T20:14:44.794Z,20.67
2023-01-20T20:17:14.380Z,22.45
2023-01-20T20:19:43.303Z,22.25
2023-01-20T20:22:12.227Z,21.27
2023-01-20T20:24:41.083Z,22.38
2023-01-20T20:27:10.057Z,22.45
2023-01-20T20:29:38.946Z,22.23
2023-01-20T20:32:08.040Z,21.25
2023-01-20T20:34:37.080Z,22.70
2023-01-20T20:37:06.051Z,22.13
2023-01-20T20:39:35.971Z,23.65
2023-01-20T20:42:04.942Z,24.38
2023-01-20T20:44:34.388Z,22.70
2023-01-20T20:47:03.307Z,21.92
2023-01-20T20:49:33.065Z,22.42
2023-01-20T20:52:02.047Z,22.73
2023-01-20T20:54:31.064Z,22.98
2023-01-20T20:57:00.033Z,22.08
2023-01-20T21:02:19.387Z,22.75
2023-01-20T21:04:48.272Z,22.35
2023-01-20T21:07:17.268Z,22.08
2023-01-20T21:09:46.962Z,20.92
2023-01-20T21:12:16.134Z,21.83
2023-01-20T21:14:45.604Z,22.77
2023-01-20T21:17:14.575Z,21.20
2023-01-20T21:19:43.468Z,19.60
2023-01-20T21:22:12.744Z,22.63
2023-01-20T21:24:41.692Z,22.20
2023-01-20T21:27:10.600Z,21.30
2023-01-20T21:29:39.717Z,20.98
2023-01-20T21:32:08.664Z,19.63
2023-01-20T21:34:37.679Z,19.00
2023-01-20T21:37:06.745Z,21.02
2023-01-20T21:39:35.908Z,18.65
2023-01-20T21:42:07.113Z,17.80
2023-01-20T21:44:37.436Z,17.55
2023-01-20T21:47:11.805Z,17.75
2023-01-20T21:49:59.085Z,16.50
2023-01-20T21:52:43.020Z,16.60
2023-01-20T21:55:20.349Z,18.73
2023-01-20T21:57:51.292Z,16.88
2023-01-20T22:00:20.748Z,17.00
2023-01-20T22:02:50.171Z,16.58
2023-01-20T22:05:19.528Z,16.33
2023-01-20T22:07:49.558Z,15.55
2023-01-20T22:10:20.076Z,15.70
2023-01-20T22:12:49.244Z,16.88
2023-01-20T22:15:18.334Z,18.52
2023-01-20T22:17:47.311Z,17.95
2023-01-20T22:20:16.550Z,16.50
2023-01-20T22:22:45.845Z,17.95
2023-01-20T22:25:16.083Z,17.65
2023-01-20T22:27:44.960Z,16.25
2023-01-20T22:30:14.399Z,17.75
2023-01-20T22:32:43.638Z,18.52
2023-01-20T22:35:12.598Z,17.27
2023-01-20T22:37:41.497Z,18.70
2023-01-20T22:40:11.065Z,18.98
2023-01-20T22:42:39.932Z,18.50
2023-01-20T22:45:09.425Z,19.35
2023-01-20T22:47:38.325Z,17.70
2023-01-20T22:50:09.039Z,18.15
2023-01-20T22:52:38.107Z,18.10
2023-01-20T22:55:07.348Z,19.27
2023-01-20T22:57:36.293Z,23.30
2023-01-20T23:00:07.064Z,18.55
2023-01-20T23:02:38.116Z,18.90
2023-01-20T23:05:07.621Z,20.27
2023-01-20T23:07:39.730Z,31.45
2023-01-20T23:10:09.502Z,17.63
2023-01-20T23:12:38.427Z,17.73
2023-01-20T23:15:07.781Z,16.25
2023-01-20T23:17:36.760Z,17.33
2023-01-20T23:20:06.088Z,18.13
2023-01-20T23:22:35.241Z,17.63
2023-01-20T23:25:04.235Z,18.38
2023-01-20T23:27:33.769Z,23.70
2023-01-20T23:30:02.732Z,25.90
2023-01-20T23:32:31.675Z,24.10
2023-01-20T23:35:00.590Z,18.45
2023-01-20T23:37:29.653Z,18.33
2023-01-20T23:39:58.585Z,19.88
2023-01-20T23:42:27.441Z,19.30
2023-01-20T23:44:57.698Z,19.92
2023-01-20T23:47:26.702Z,20.13
2023-01-20T23:49:55.577Z,20.13
2023-01-20T23:52:27.032Z,17.95
2023-01-20T23:54:56.097Z,21.13
2023-01-20T23:57:25.646Z,31.25
2023-01-20T23:59:54.589Z,20.75
